createdAt,value
2022-12-03T00:01:07.251Z,35.42
2022-12-03T00:04:10.337Z,34.98
2022-12-03T00:07:13.544Z,34.90
2022-12-03T00:10:16.647Z,34.99
2022-12-03T00:13:19.637Z,35.48
2022-12-03T00:16:24.183Z,35.51
2022-12-03T00:19:27.349Z,35.12
2022-12-03T00:22:30.410Z,35.35
2022-12-03T00:25:33.462Z,35.11
2022-12-03T00:28:36.458Z,35.30
2022-12-03T00:31:42.244Z,34.94
2022-12-03T00:34:45.658Z,35.04
2022-12-03T00:37:48.719Z,35.30
2022-12-03T00:40:51.786Z,35.42
2022-12-03T00:43:57.509Z,35.40
2022-12-03T00:47:01.981Z,34.78
2022-12-03T00:50:05.271Z,35.36
2022-12-03T00:53:08.339Z,35.18
2022-12-03T00:56:11.355Z,35.18
2022-12-03T00:59:14.440Z,35.09
2022-12-03T01:02:18.962Z,34.85
2022-12-03T01:05:22.282Z,34.94
2022-12-03T01:08:25.407Z,34.75
2022-12-03T01:11:41.436Z,35.00
2022-12-03T01:14:44.487Z,34.84
2022-12-03T01:17:48.902Z,35.07
2022-12-03T01:20:51.984Z,35.00
2022-12-03T01:23:55.045Z,35.13
2022-12-03T01:26:58.108Z,34.67
2022-12-03T01:30:01.134Z,35.13
2022-12-03T01:33:04.619Z,34.73
2022-12-03T01:36:08.137Z,34.76
2022-12-03T01:39:11.149Z,34.96
2022-12-03T01:42:17.989Z,35.11
2022-12-03T01:45:24.163Z,34.70
2022-12-03T01:48:32.673Z,35.00
2022-12-03T01:51:35.804Z,35.18
2022-12-03T01:54:42.081Z,34.59
2022-12-03T01:57:48.790Z,35.03
2022-12-03T02:00:51.893Z,34.63
2022-12-03T02:03:56.311Z,34.67
2022-12-03T02:07:17.996Z,35.11
2022-12-03T02:10:26.708Z,34.79
2022-12-03T02:13:30.140Z,34.85
2022-12-03T02:16:35.665Z,34.89
2022-12-03T02:19:40.361Z,34.89
2022-12-03T02:22:49.599Z,34.49
2022-12-03T02:25:54.122Z,34.46
2022-12-03T02:28:57.745Z,34.58
2022-12-03T02:32:00.859Z,34.45
2022-12-03T02:35:03.933Z,34.99
2022-12-03T02:38:12.977Z,35.11
2022-12-03T02:41:34.084Z,34.46
2022-12-03T02:44:37.154Z,34.47
2022-12-03T02:47:44.950Z,34.43
2022-12-03T02:50:52.095Z,34.66
2022-12-03T02:53:57.405Z,34.60
2022-12-03T02:57:02.286Z,34.90
2022-12-03T03:00:06.172Z,34.78
2022-12-03T03:03:10.198Z,34.31
2022-12-03T03:06:14.096Z,34.81
2022-12-03T03:09:17.138Z,34.78
2022-12-03T03:12:21.506Z,34.40
2022-12-03T03:15:25.516Z,34.94
2022-12-03T03:18:28.532Z,34.24
2022-12-03T03:21:31.934Z,34.73
2022-12-03T03:24:34.999Z,34.26
2022-12-03T03:27:40.242Z,34.24
2022-12-03T03:30:59.556Z,34.46
2022-12-03T03:34:02.701Z,34.71
2022-12-03T03:37:05.938Z,34.33
2022-12-03T03:40:10.088Z,34.32
2022-12-03T03:43:15.025Z,34.81
2022-12-03T03:46:20.045Z,34.70
2022-12-03T03:49:23.698Z,34.37
2022-12-03T03:52:27.049Z,34.12
2022-12-03T03:55:31.089Z,34.22
2022-12-03T03:58:35.896Z,34.72
2022-12-03T04:01:39.365Z,34.53
2022-12-03T04:04:42.426Z,34.22
2022-12-03T04:07:45.562Z,34.72
2022-12-03T04:11:06.134Z,34.29
2022-12-03T04:14:10.677Z,34.30
2022-12-03T04:17:13.790Z,34.66
2022-12-03T04:20:16.988Z,34.17
2022-12-03T04:23:18.954Z,34.71
2022-12-03T04:26:39.457Z,34.52
2022-12-03T04:29:43.877Z,34.47
2022-12-03T04:33:04.175Z,34.52
2022-12-03T04:36:07.516Z,34.14
2022-12-03T04:39:10.548Z,34.59
2022-12-03T04:42:13.605Z,34.76
2022-12-03T04:45:18.068Z,34.97
2022-12-03T04:48:21.157Z,35.18
2022-12-03T04:51:24.228Z,35.24
2022-12-03T04:54:27.507Z,35.18
2022-12-03T04:57:30.490Z,35.19
2022-12-03T05:00:34.973Z,35.37
2022-12-03T05:03:37.990Z,35.16
2022-12-03T05:06:41.513Z,35.53
2022-12-03T05:09:44.574Z,35.46
2022-12-03T05:12:47.642Z,35.27
2022-12-03T05:15:52.097Z,35.68
2022-12-03T05:18:55.092Z,35.55
2022-12-03T05:21:58.246Z,35.04
2022-12-03T05:25:01.311Z,35.62
2022-12-03T05:28:05.144Z,35.39
2022-12-03T05:31:10.023Z,35.68
2022-12-03T05:34:13.046Z,35.27
2022-12-03T05:37:16.206Z,35.40
2022-12-03T05:40:20.011Z,35.77
2022-12-03T05:43:22.077Z,36.28
2022-12-03T05:46:26.557Z,36.20
2022-12-03T05:49:29.645Z,36.08
2022-12-03T05:52:32.651Z,36.13
2022-12-03T05:55:35.729Z,35.83
2022-12-03T05:58:38.788Z,35.88
2022-12-03T06:01:43.286Z,35.50
2022-12-03T06:04:46.471Z,35.87
2022-12-03T06:07:50.582Z,35.97
2022-12-03T06:10:53.688Z,35.84
2022-12-03T06:13:56.894Z,35.94
2022-12-03T06:17:01.367Z,35.93
2022-12-03T06:20:05.445Z,35.57
2022-12-03T06:23:08.599Z,36.10
2022-12-03T06:26:11.692Z,35.68
2022-12-03T06:29:14.756Z,35.84
2022-12-03T06:32:19.177Z,35.99
2022-12-03T06:35:22.176Z,35.98
2022-12-03T06:38:25.205Z,36.22
2022-12-03T06:41:28.212Z,35.55
2022-12-03T06:44:31.308Z,36.11
2022-12-03T06:47:35.731Z,36.19
2022-12-03T06:50:38.795Z,36.01
2022-12-03T06:53:41.880Z,36.04
2022-12-03T06:56:45.643Z,36.35
2022-12-03T06:59:48.849Z,35.98
2022-12-03T07:02:53.285Z,35.94
2022-12-03T07:05:56.417Z,35.82
2022-12-03T07:08:59.534Z,35.74
2022-12-03T07:12:02.612Z,35.90
2022-12-03T07:15:06.435Z,36.50
2022-12-03T07:18:10.856Z,36.11
2022-12-03T07:21:13.842Z,36.54
2022-12-03T07:24:16.932Z,35.95
2022-12-03T07:27:19.988Z,36.19
2022-12-03T07:30:25.577Z,36.16
2022-12-03T07:33:30.478Z,36.38
2022-12-03T07:36:33.461Z,35.74
2022-12-03T07:39:36.632Z,36.21
2022-12-03T07:42:39.706Z,36.15
2022-12-03T07:45:42.806Z,35.84
2022-12-03T07:48:47.449Z,36.02
2022-12-03T07:51:54.307Z,36.26
2022-12-03T07:54:57.441Z,35.98
2022-12-03T07:58:00.462Z,35.79
2022-12-03T08:01:03.588Z,36.05
2022-12-03T08:04:08.197Z,35.94
2022-12-03T08:07:11.253Z,36.25
